sensor_id;sensor_type;location;lat;lon;timestamp;pressure;altitude;pressure_sealevel;temperature;humidity
46111;BME280;31849;55.992;37.252;2023-04-01T00:00:10;97668.81;;;3.43;62.42
46111;BME280;31849;55.992;37.252;2023-04-01T00:05:14;97670.50;;;3.44;62.24
46111;BME280;31849;55.992;37.252;2023-04-01T00:10:18;97642.28;;;3.35;62.06
46111;BME280;31849;55.992;37.252;2023-04-01T00:15:23;97671.31;;;3.60;62.23
46111;BME280;31849;55.992;37.252;2023-04-01T00:20:27;97677.31;;;3.59;62.06
46111;BME280;31849;55.992;37.252;2023-04-01T00:25:31;97668.72;;;3.65;61.80
46111;BME280;31849;55.992;37.252;2023-04-01T00:30:37;97660.97;;;3.73;61.85
46111;BME280;31849;55.992;37.252;2023-04-01T00:35:40;97665.31;;;3.66;61.88
46111;BME280;31849;55.992;37.252;2023-04-01T00:40:45;97646.47;;;3.58;62.34
46111;BME280;31849;55.992;37.252;2023-04-01T00:45:51;97648.16;;;3.63;61.83
46111;BME280;31849;55.992;37.252;2023-04-01T00:50:54;97646.47;;;3.67;61.22
46111;BME280;31849;55.992;37.252;2023-04-01T00:56:03;97644.78;;;3.58;62.14
46111;BME280;31849;55.992;37.252;2023-04-01T01:01:09;97649.91;;;3.63;61.36
46111;BME280;31849;55.992;37.252;2023-04-01T01:06:26;97644.75;;;3.64;62.16
46111;BME280;31849;55.992;37.252;2023-04-01T01:11:37;97648.19;;;3.59;61.86
46111;BME280;31849;55.992;37.252;2023-04-01T01:16:50;97645.66;;;3.52;62.21
46111;BME280;31849;55.992;37.252;2023-04-01T01:22:08;97650.75;;;3.57;62.58
46111;BME280;31849;55.992;37.252;2023-04-01T01:27:20;97654.16;;;3.72;61.29
46111;BME280;31849;55.992;37.252;2023-04-01T01:32:42;97643.06;;;3.54;62.21
46111;BME280;31849;55.992;37.252;2023-04-01T01:37:56;97656.75;;;3.65;61.67
46111;BME280;31849;55.992;37.252;2023-04-01T01:43:05;97655.03;;;3.64;62.34
46111;BME280;31849;55.992;37.252;2023-04-01T01:48:09;97621.69;;;3.49;62.77
46111;BME280;31849;55.992;37.252;2023-04-01T01:53:15;97663.53;;;3.82;62.25
46111;BME280;31849;55.992;37.252;2023-04-01T01:58:20;97648.91;;;3.88;61.39
46111;BME280;31849;55.992;37.252;2023-04-01T02:03:28;97631.94;;;3.54;62.39
46111;BME280;31849;55.992;37.252;2023-04-01T02:08:36;97653.31;;;3.65;61.80
46111;BME280;31849;55.992;37.252;2023-04-01T02:13:45;97654.19;;;3.65;62.02
46111;BME280;31849;55.992;37.252;2023-04-01T02:18:51;97655.03;;;3.63;61.83
46111;BME280;31849;55.992;37.252;2023-04-01T02:23:59;97658.50;;;3.54;61.87
46111;BME280;31849;55.992;37.252;2023-04-01T02:29:05;97657.66;;;3.43;62.33
46111;BME280;31849;55.992;37.252;2023-04-01T02:34:09;97659.41;;;3.38;62.29
46111;BME280;31849;55.992;37.252;2023-04-01T02:39:15;97658.53;;;3.40;62.19
46111;BME280;31849;55.992;37.252;2023-04-01T02:44:18;97669.69;;;3.36;62.31
46111;BME280;31849;55.992;37.252;2023-04-01T02:49:22;97676.53;;;3.32;63.17
46111;BME280;31849;55.992;37.252;2023-04-01T02:54:27;97673.97;;;3.40;62.71
46111;BME280;31849;55.992;37.252;2023-04-01T02:59:30;97679.97;;;3.34;63.25
46111;BME280;31849;55.992;37.252;2023-04-01T03:04:33;97677.41;;;3.24;62.71
46111;BME280;31849;55.992;37.252;2023-04-01T03:09:38;97685.94;;;3.37;62.78
46111;BME280;31849;55.992;37.252;2023-04-01T03:14:42;97692.75;;;3.48;62.63
46111;BME280;31849;55.992;37.252;2023-04-01T03:19:46;97691.91;;;3.48;63.05
46111;BME280;31849;55.992;37.252;2023-04-01T03:24:51;97691.91;;;3.52;62.85
46111;BME280;31849;55.992;37.252;2023-04-01T03:29:54;97692.75;;;3.55;62.65
46111;BME280;31849;55.992;37.252;2023-04-01T03:34:57;97691.94;;;3.39;62.66
46111;BME280;31849;55.992;37.252;2023-04-01T03:40:03;97681.66;;;3.40;62.78
46111;BME280;31849;55.992;37.252;2023-04-01T03:45:07;97689.38;;;3.43;62.48
46111;BME280;31849;55.992;37.252;2023-04-01T03:50:11;97716.72;;;3.58;62.51
46111;BME280;31849;55.992;37.252;2023-04-01T03:55:16;97709.84;;;3.62;62.62
46111;BME280;31849;55.992;37.252;2023-04-01T04:00:20;97720.16;;;3.60;62.72
46111;BME280;31849;55.992;37.252;2023-04-01T04:05:24;97733.84;;;3.53;63.54
46111;BME280;31849;55.992;37.252;2023-04-01T04:10:29;97733.88;;;3.42;63.22
46111;BME280;31849;55.992;37.252;2023-04-01T04:15:32;97731.31;;;3.44;63.34
46111;BME280;31849;55.992;37.252;2023-04-01T04:20:36;97737.31;;;3.55;63.35
46111;BME280;31849;55.992;37.252;2023-04-01T04:25:41;97749.25;;;3.70;62.52
46111;BME280;31849;55.992;37.252;2023-04-01T04:30:44;97753.53;;;3.68;62.56
46111;BME280;31849;55.992;37.252;2023-04-01T04:35:48;97758.69;;;3.63;63.03
46111;BME280;31849;55.992;37.252;2023-04-01T04:40:53;97747.50;;;3.77;63.01
46111;BME280;31849;55.992;37.252;2023-04-01T04:45:57;97764.63;;;3.87;62.26
46111;BME280;31849;55.992;37.252;2023-04-01T04:51:01;97763.81;;;3.79;62.14
46111;BME280;31849;55.992;37.252;2023-04-01T04:56:06;97769.75;;;3.92;62.46
46111;BME280;31849;55.992;37.252;2023-04-01T05:01:11;97773.13;;;4.12;61.74
46111;BME280;31849;55.992;37.252;2023-04-01T05:06:16;97778.22;;;4.20;61.57
46111;BME280;31849;55.992;37.252;2023-04-01T05:11:23;97780.75;;;4.37;61.79
46111;BME280;31849;55.992;37.252;2023-04-01T05:16:27;97777.41;;;4.16;62.56
46111;BME280;31849;55.992;37.252;2023-04-01T05:21:33;97785.13;;;4.15;62.84
46111;BME280;31849;55.992;37.252;2023-04-01T05:26:38;97794.53;;;4.23;62.48
46111;BME280;31849;55.992;37.252;2023-04-01T05:31:41;97804.75;;;4.34;62.19
46111;BME280;31849;55.992;37.252;2023-04-01T05:36:45;97791.88;;;4.40;61.96
46111;BME280;31849;55.992;37.252;2023-04-01T05:41:50;97797.75;;;4.64;61.83
46111;BME280;31849;55.992;37.252;2023-04-01T05:46:53;97800.28;;;4.70;61.39
46111;BME280;31849;55.992;37.252;2023-04-01T05:51:57;97800.19;;;4.87;60.70
46111;BME280;31849;55.992;37.252;2023-04-01T05:57:02;97802.69;;;4.98;60.78
46111;BME280;31849;55.992;37.252;2023-04-01T06:02:07;97806.88;;;5.13;61.22
46111;BME280;31849;55.992;37.252;2023-04-01T06:07:12;97805.75;;;5.50;60.99
46111;BME280;31849;55.992;37.252;2023-04-01T06:12:40;97808.56;;;6.16;59.35
46111;BME280;31849;55.992;37.252;2023-04-01T06:18:01;97816.16;;;6.29;59.33
46111;BME280;31849;55.992;37.252;2023-04-01T06:23:22;97814.53;;;6.20;59.34
46111;BME280;31849;55.992;37.252;2023-04-01T06:34:21;97826.50;;;6.94;57.85
46111;BME280;31849;55.992;37.252;2023-04-01T06:39:49;97825.72;;;6.89;57.52
46111;BME280;31849;55.992;37.252;2023-04-01T06:45:07;97826.41;;;7.00;57.92
46111;BME280;31849;55.992;37.252;2023-04-01T06:50:23;97831.50;;;7.05;57.34
46111;BME280;31849;55.992;37.252;2023-04-01T06:55:33;97831.31;;;7.75;56.62
46111;BME280;31849;55.992;37.252;2023-04-01T07:00:42;97842.06;;;8.00;55.50
46111;BME280;31849;55.992;37.252;2023-04-01T07:05:48;97846.00;;;7.71;56.46
46111;BME280;31849;55.992;37.252;2023-04-01T07:10:55;97840.63;;;7.82;55.93
46111;BME280;31849;55.992;37.252;2023-04-01T07:16:07;97849.06;;;8.42;54.91
46111;BME280;31849;55.992;37.252;2023-04-01T07:21:22;97852.59;;;8.38;54.16
46111;BME280;31849;55.992;37.252;2023-04-01T07:26:26;97845.81;;;8.76;53.53
46111;BME280;31849;55.992;37.252;2023-04-01T07:31:41;97840.03;;;9.77;52.34
46111;BME280;31849;55.992;37.252;2023-04-01T07:36:54;97844.69;;;11.21;49.15
46111;BME280;31849;55.992;37.252;2023-04-01T07:42:10;97846.38;;;11.77;45.79
46111;BME280;31849;55.992;37.252;2023-04-01T07:47:29;97853.78;;;11.90;46.11
46111;BME280;31849;55.992;37.252;2023-04-01T07:52:44;97858.03;;;11.94;46.09
46111;BME280;31849;55.992;37.252;2023-04-01T07:57:55;97859.75;;;11.38;47.65
46111;BME280;31849;55.992;37.252;2023-04-01T08:03:33;97869.06;;;10.26;48.21
46111;BME280;31849;55.992;37.252;2023-04-01T08:08:50;97874.69;;;10.09;48.31
46111;BME280;31849;55.992;37.252;2023-04-01T08:14:05;97880.09;;;10.66;47.99
46111;BME280;31849;55.992;37.252;2023-04-01T08:19:20;97877.03;;;11.13;47.52
46111;BME280;31849;55.992;37.252;2023-04-01T08:24:32;97884.09;;;11.92;46.39
46111;BME280;31849;55.992;37.252;2023-04-01T08:29:50;97880.19;;;13.27;43.18
46111;BME280;31849;55.992;37.252;2023-04-01T08:35:13;97871.63;;;15.10;39.74
46111;BME280;31849;55.992;37.252;2023-04-01T08:40:45;97871.19;;;19.23;32.89
46111;BME280;31849;55.992;37.252;2023-04-01T08:46:10;97833.63;;;18.04;31.76
46111;BME280;31849;55.992;37.252;2023-04-01T08:51:47;97861.44;;;15.79;35.27
46111;BME280;31849;55.992;37.252;2023-04-01T08:56:59;97870.13;;;15.05;35.24
46111;BME280;31849;55.992;37.252;2023-04-01T09:07:40;97888.84;;;14.16;36.54
46111;BME280;31849;55.992;37.252;2023-04-01T09:12:59;97891.34;;;13.31;36.51
46111;BME280;31849;55.992;37.252;2023-04-01T09:35:39;97908.81;;;12.07;38.28
46111;BME280;31849;55.992;37.252;2023-04-01T09:40:55;97904.22;;;12.64;38.06
46111;BME280;31849;55.992;37.252;2023-04-01T09:46:18;97902.56;;;12.87;37.20
46111;BME280;31849;55.992;37.252;2023-04-01T09:51:34;97910.22;;;12.92;35.85
46111;BME280;31849;55.992;37.252;2023-04-01T09:57:10;97911.28;;;12.37;34.88
46111;BME280;31849;55.992;37.252;2023-04-01T10:02:45;97920.97;;;12.32;37.25
46111;BME280;31849;55.992;37.252;2023-04-01T10:08:19;97928.81;;;12.05;37.40
46111;BME280;31849;55.992;37.252;2023-04-01T10:14:02;97928.19;;;12.25;37.48
46111;BME280;31849;55.992;37.252;2023-04-01T10:19:49;97942.44;;;11.58;38.60
46111;BME280;31849;55.992;37.252;2023-04-01T10:25:24;97935.28;;;12.20;36.04
46111;BME280;31849;55.992;37.252;2023-04-01T10:30:59;97943.47;;;12.09;37.15
46111;BME280;31849;55.992;37.252;2023-04-01T10:36:34;97945.69;;;12.20;37.11
46111;BME280;31849;55.992;37.252;2023-04-01T10:42:02;97946.88;;;12.11;36.09
46111;BME280;31849;55.992;37.252;2023-04-01T10:59:01;97953.50;;;11.65;37.25
46111;BME280;31849;55.992;37.252;2023-04-01T11:04:48;97956.84;;;11.42;37.75
46111;BME280;31849;55.992;37.252;2023-04-01T11:10:33;97957.72;;;11.41;38.11
46111;BME280;31849;55.992;37.252;2023-04-01T11:22:15;97954.50;;;11.33;37.89
46111;BME280;31849;55.992;37.252;2023-04-01T11:27:36;97946.81;;;11.28;37.83
46111;BME280;31849;55.992;37.252;2023-04-01T11:32:52;97948.25;;;11.08;38.24
46111;BME280;31849;55.992;37.252;2023-04-01T11:38:06;97963.16;;;11.33;38.24
46111;BME280;31849;55.992;37.252;2023-04-01T11:43:18;97959.56;;;11.37;38.15
46111;BME280;31849;55.992;37.252;2023-04-01T11:48:44;97968.31;;;11.35;37.36
46111;BME280;31849;55.992;37.252;2023-04-01T11:53:56;97962.28;;;11.03;38.53
46111;BME280;31849;55.992;37.252;2023-04-01T12:05:15;97977.75;;;11.39;38.20
46111;BME280;31849;55.992;37.252;2023-04-01T12:10:28;97960.28;;;11.71;36.53
46111;BME280;31849;55.992;37.252;2023-04-01T12:15:51;97969.84;;;11.70;37.64
46111;BME280;31849;55.992;37.252;2023-04-01T12:21:02;97967.03;;;10.88;37.72
46111;BME280;31849;55.992;37.252;2023-04-01T12:26:39;97965.97;;;10.96;37.33
46111;BME280;31849;55.992;37.252;2023-04-01T12:31:48;97984.63;;;10.46;37.98
46111;BME280;31849;55.992;37.252;2023-04-01T12:37:05;97986.38;;;10.45;38.05
46111;BME280;31849;55.992;37.252;2023-04-01T12:42:18;97985.41;;;10.48;38.63
46111;BME280;31849;55.992;37.252;2023-04-01T12:47:38;97997.53;;;10.13;38.24
46111;BME280;31849;55.992;37.252;2023-04-01T12:53:00;97983.72;;;10.11;39.13
46111;BME280;31849;55.992;37.252;2023-04-01T13:03:58;97998.13;;;10.23;39.07
46111;BME280;31849;55.992;37.252;2023-04-01T13:09:16;98008.06;;;10.07;39.74
46111;BME280;31849;55.992;37.252;2023-04-01T13:14:40;98016.56;;;10.13;40.31
46111;BME280;31849;55.992;37.252;2023-04-01T13:19:51;98022.78;;;10.06;40.74
46111;BME280;31849;55.992;37.252;2023-04-01T13:25:17;98026.78;;;9.82;41.13
46111;BME280;31849;55.992;37.252;2023-04-01T13:30:27;98024.91;;;9.89;41.41
46111;BME280;31849;55.992;37.252;2023-04-01T13:35:41;98022.38;;;9.85;41.88
46111;BME280;31849;55.992;37.252;2023-04-01T13:40:58;98030.19;;;9.84;41.37
46111;BME280;31849;55.992;37.252;2023-04-01T13:46:40;98038.72;;;9.91;41.61
46111;BME280;31849;55.992;37.252;2023-04-01T13:52:05;98050.03;;;9.88;41.96
46111;BME280;31849;55.992;37.252;2023-04-01T13:57:16;98054.19;;;9.95;41.75
46111;BME280;31849;55.992;37.252;2023-04-01T14:02:47;98064.09;;;10.15;41.41
46111;BME280;31849;55.992;37.252;2023-04-01T14:08:05;98055.59;;;10.10;40.93
46111;BME280;31849;55.992;37.252;2023-04-01T14:13:18;98067.72;;;10.10;40.99
46111;BME280;31849;55.992;37.252;2023-04-01T14:18:45;98068.56;;;10.10;41.35
46111;BME280;31849;55.992;37.252;2023-04-01T14:29:28;98074.97;;;9.95;41.27
46111;BME280;31849;55.992;37.252;2023-04-01T14:34:49;98085.94;;;10.08;41.08
46111;BME280;31849;55.992;37.252;2023-04-01T14:40:16;98088.66;;;10.02;40.47
46111;BME280;31849;55.992;37.252;2023-04-01T14:45:40;98094.00;;;9.54;40.85
46111;BME280;31849;55.992;37.252;2023-04-01T14:50:49;98099.84;;;9.65;41.84
46111;BME280;31849;55.992;37.252;2023-04-01T14:55:56;98106.06;;;9.56;41.90
46111;BME280;31849;55.992;37.252;2023-04-01T15:01:23;98108.69;;;9.56;41.14
46111;BME280;31849;55.992;37.252;2023-04-01T15:12:06;98125.53;;;9.33;43.03
46111;BME280;31849;55.992;37.252;2023-04-01T15:17:28;98128.50;;;9.13;44.11
46111;BME280;31849;55.992;37.252;2023-04-01T15:22:58;98134.00;;;8.93;44.94
46111;BME280;31849;55.992;37.252;2023-04-01T15:28:13;98143.56;;;8.91;46.19
46111;BME280;31849;55.992;37.252;2023-04-01T15:33:24;98148.56;;;8.48;48.23
46111;BME280;31849;55.992;37.252;2023-04-01T15:38:36;98151.16;;;8.48;48.01
46111;BME280;31849;55.992;37.252;2023-04-01T15:43:42;98154.75;;;8.37;48.54
46111;BME280;31849;55.992;37.252;2023-04-01T15:48:55;98178.84;;;8.42;50.23
46111;BME280;31849;55.992;37.252;2023-04-01T15:54:23;98186.84;;;8.27;52.09
46111;BME280;31849;55.992;37.252;2023-04-01T15:59:50;98182.69;;;8.14;50.61
46111;BME280;31849;55.992;37.252;2023-04-01T16:04:59;98191.34;;;8.11;51.87
46111;BME280;31849;55.992;37.252;2023-04-01T16:10:23;98203.63;;;7.95;52.44
46111;BME280;31849;55.992;37.252;2023-04-01T16:15:35;98197.84;;;7.73;54.40
46111;BME280;31849;55.992;37.252;2023-04-01T16:20:48;98212.31;;;7.89;55.63
46111;BME280;31849;55.992;37.252;2023-04-01T16:26:01;98208.91;;;7.86;54.44
46111;BME280;31849;55.992;37.252;2023-04-01T16:31:09;98220.97;;;7.88;54.55
46111;BME280;31849;55.992;37.252;2023-04-01T16:36:26;98222.84;;;7.75;56.26
46111;BME280;31849;55.992;37.252;2023-04-01T16:41:32;98222.00;;;7.73;55.43
46111;BME280;31849;55.992;37.252;2023-04-01T16:46:38;98224.75;;;7.56;56.40
46111;BME280;31849;55.992;37.252;2023-04-01T16:51:45;98230.06;;;7.43;55.86
46111;BME280;31849;55.992;37.252;2023-04-01T16:56:53;98219.81;;;7.35;56.82
46111;BME280;31849;55.992;37.252;2023-04-01T17:02:04;98226.91;;;7.13;60.63
46111;BME280;31849;55.992;37.252;2023-04-01T17:07:21;98221.66;;;7.20;59.17
46111;BME280;31849;55.992;37.252;2023-04-01T17:12:33;98231.25;;;7.04;60.26
46111;BME280;31849;55.992;37.252;2023-04-01T17:17:45;98228.56;;;7.15;60.26
46111;BME280;31849;55.992;37.252;2023-04-01T17:22:56;98250.88;;;7.26;58.65
46111;BME280;31849;55.992;37.252;2023-04-01T17:28:12;98246.47;;;7.38;59.75
46111;BME280;31849;55.992;37.252;2023-04-01T17:33:44;98256.03;;;7.27;61.01
46111;BME280;31849;55.992;37.252;2023-04-01T17:39:01;98252.59;;;7.30;60.86
46111;BME280;31849;55.992;37.252;2023-04-01T17:44:18;98251.63;;;7.40;60.04
46111;BME280;31849;55.992;37.252;2023-04-01T17:49:31;98254.16;;;7.48;58.38
46111;BME280;31849;55.992;37.252;2023-04-01T17:54:43;98252.41;;;7.51;59.15
46111;BME280;31849;55.992;37.252;2023-04-01T17:59:57;98251.69;;;7.35;61.02
46111;BME280;31849;55.992;37.252;2023-04-01T18:05:37;98258.59;;;7.32;60.41
46111;BME280;31849;55.992;37.252;2023-04-01T18:10:56;98260.28;;;7.36;59.27
46111;BME280;31849;55.992;37.252;2023-04-01T18:16:12;98274.16;;;7.26;61.12
46111;BME280;31849;55.992;37.252;2023-04-01T18:21:27;98284.44;;;7.35;60.31
46111;BME280;31849;55.992;37.252;2023-04-01T18:26:37;98275.94;;;7.22;60.29
46111;BME280;31849;55.992;37.252;2023-04-01T18:31:45;98293.19;;;7.17;60.70
46111;BME280;31849;55.992;37.252;2023-04-01T18:36:52;98289.72;;;7.19;60.63
46111;BME280;31849;55.992;37.252;2023-04-01T18:42:05;98300.13;;;7.10;61.04
46111;BME280;31849;55.992;37.252;2023-04-01T18:47:23;98301.75;;;7.27;60.29
46111;BME280;31849;55.992;37.252;2023-04-01T18:52:33;98309.59;;;7.14;61.13
46111;BME280;31849;55.992;37.252;2023-04-01T18:57:45;98322.41;;;7.27;61.60
46111;BME280;31849;55.992;37.252;2023-04-01T19:02:55;98320.78;;;7.13;61.58
46111;BME280;31849;55.992;37.252;2023-04-01T19:08:20;98316.41;;;7.25;60.72
46111;BME280;31849;55.992;37.252;2023-04-01T19:13:35;98326.00;;;7.09;61.99
46111;BME280;31849;55.992;37.252;2023-04-01T19:18:55;98327.59;;;7.27;62.10
46111;BME280;31849;55.992;37.252;2023-04-01T19:24:34;98315.66;;;7.10;63.13
46111;BME280;31849;55.992;37.252;2023-04-01T19:29:54;98337.88;;;7.33;61.33
46111;BME280;31849;55.992;37.252;2023-04-01T19:35:12;98337.88;;;7.33;61.88
46111;BME280;31849;55.992;37.252;2023-04-01T19:40:37;98346.63;;;7.16;63.96
46111;BME280;31849;55.992;37.252;2023-04-01T19:45:49;98341.34;;;7.35;61.29
46111;BME280;31849;55.992;37.252;2023-04-01T19:50:58;98340.56;;;7.20;62.61
46111;BME280;31849;55.992;37.252;2023-04-01T19:56:14;98339.69;;;7.18;62.88
46111;BME280;31849;55.992;37.252;2023-04-01T20:01:24;98344.09;;;7.10;63.15
46111;BME280;31849;55.992;37.252;2023-04-01T20:06:48;98338.91;;;7.12;63.19
46111;BME280;31849;55.992;37.252;2023-04-01T20:11:58;98338.03;;;7.13;62.56
46111;BME280;31849;55.992;37.252;2023-04-01T20:17:15;98348.47;;;6.97;64.06
46111;BME280;31849;55.992;37.252;2023-04-01T20:22:34;98340.72;;;6.94;65.42
46111;BME280;31849;55.992;37.252;2023-04-01T20:27:44;98344.28;;;6.76;65.10
46111;BME280;31849;55.992;37.252;2023-04-01T20:33:00;98335.69;;;6.74;64.58
46111;BME280;31849;55.992;37.252;2023-04-01T20:44:09;98324.56;;;6.60;65.43
46111;BME280;31849;55.992;37.252;2023-04-01T20:49:41;98340.88;;;6.71;64.83
46111;BME280;31849;55.992;37.252;2023-04-01T20:55:13;98353.78;;;6.69;65.54
46111;BME280;31849;55.992;37.252;2023-04-01T21:00:29;98355.44;;;6.80;64.54
46111;BME280;31849;55.992;37.252;2023-04-01T21:11:01;98365.75;;;6.89;64.53
46111;BME280;31849;55.992;37.252;2023-04-01T21:16:17;98368.28;;;6.98;64.99
46111;BME280;31849;55.992;37.252;2023-04-01T21:27:16;98378.59;;;7.00;64.96
46111;BME280;31849;55.992;37.252;2023-04-01T21:32:37;98376.75;;;7.22;64.20
46111;BME280;31849;55.992;37.252;2023-04-01T21:38:16;98383.66;;;7.17;65.35
46111;BME280;31849;55.992;37.252;2023-04-01T21:43:35;98381.09;;;7.15;65.09
46111;BME280;31849;55.992;37.252;2023-04-01T22:00:07;98377.53;;;7.32;63.81
46111;BME280;31849;55.992;37.252;2023-04-01T22:05:16;98380.13;;;7.32;63.89
46111;BME280;31849;55.992;37.252;2023-04-01T22:10:26;98385.25;;;7.43;63.94
46111;BME280;31849;55.992;37.252;2023-04-01T22:15:48;98384.28;;;7.54;63.99
46111;BME280;31849;55.992;37.252;2023-04-01T22:20:59;98389.53;;;7.47;63.73
46111;BME280;31849;55.992;37.252;2023-04-01T22:26:14;98391.28;;;7.40;64.48
46111;BME280;31849;55.992;37.252;2023-04-01T22:31:25;98395.63;;;7.32;64.61
46111;BME280;31849;55.992;37.252;2023-04-01T22:36:40;98397.34;;;7.36;64.39
46111;BME280;31849;55.992;37.252;2023-04-01T22:42:05;98388.66;;;7.45;63.79
46111;BME280;31849;55.992;37.252;2023-04-01T22:47:17;98392.03;;;7.56;63.39
46111;BME280;31849;55.992;37.252;2023-04-01T22:52:30;98400.72;;;7.47;64.43
46111;BME280;31849;55.992;37.252;2023-04-01T22:57:40;98390.44;;;7.38;64.88
46111;BME280;31849;55.992;37.252;2023-04-01T23:02:59;98397.22;;;7.54;63.55
46111;BME280;31849;55.992;37.252;2023-04-01T23:08:28;98403.25;;;7.55;63.92
46111;BME280;31849;55.992;37.252;2023-04-01T23:13:41;98397.31;;;7.40;64.71
46111;BME280;31849;55.992;37.252;2023-04-01T23:18:52;98411.06;;;7.49;64.86
46111;BME280;31849;55.992;37.252;2023-04-01T23:24:04;98407.63;;;7.42;65.66
46111;BME280;31849;55.992;37.252;2023-04-01T23:29:14;98405.97;;;7.36;66.29
46111;BME280;31849;55.992;37.252;2023-04-01T23:34:30;98406.00;;;7.29;65.74
46111;BME280;31849;55.992;37.252;2023-04-01T23:39:35;98411.16;;;7.33;65.96
46111;BME280;31849;55.992;37.252;2023-04-01T23:44:40;98406.81;;;7.37;65.87
46111;BME280;31849;55.992;37.252;2023-04-01T23:49:48;98403.34;;;7.43;66.26
46111;BME280;31849;55.992;37.252;2023-04-01T23:54:55;98405.97;;;7.32;66.55
